WetterOnline ( http://www.wetteronline.de )

Wetter aktuell Donau-Ries

Aktuelles Wetter: Harburg (503m)

6-stündlich | Neueste Meldungen
Ortszeit Temperatur Wetter
Fr, 21.09. 8:00 12.0° C leicht bewölkt
Fr, 21.09. 2:00 17.4° C leicht bewölkt
Do, 20.09. 20:00 21.8° C fast wolkenlos
Do, 20.09. 14:00 24.9° C wolkig
Do, 20.09. 8:00 12.7° C Nebel
Do, 20.09. 2:00 17.2° C leicht bewölkt
Mi, 19.09. 20:00 20.5° C fast wolkenlos
Mi, 19.09. 14:00 21.7° C fast wolkenlos
Ortszeit Temperatur Wetter
Fr, 21.09. 13:30 25.1° C wolkig
Fr, 21.09. 13:10 25.4° C bewölkt
Fr, 21.09. 13:00 25.0° C fast wolkenlos
Fr, 21.09. 12:50 25.0° C fast wolkenlos
Fr, 21.09. 12:40 25.0° C leicht bewölkt
Fr, 21.09. 12:30 24.0° C bewölkt
Fr, 21.09. 12:00 22.4° C leicht bewölkt
Fr, 21.09. 11:30 21.5° C fast wolkenlos
Fr, 21.09. 11:00 20.4° C leicht bewölkt
Fr, 21.09. 10:30 19.4° C leicht bewölkt
Ortszeit Relative Feuchte Sichtweite
Fr, 21.09. 8:00 99% 2.6 km
Fr, 21.09. 2:00 76% 21 km
Do, 20.09. 20:00 58% 40 km
Do, 20.09. 14:00 53% 27 km
Do, 20.09. 8:00 100% 0.4 km
Do, 20.09. 2:00 79% 21 km
Mi, 19.09. 20:00 69% 40 km
Mi, 19.09. 14:00 63% 30 km
Ortszeit Relative Feuchte Sichtweite
Fr, 21.09. 13:30 49% 20 km
Fr, 21.09. 13:10 48% -
Fr, 21.09. 13:00 48% 18 km
Fr, 21.09. 12:50 48% -
Fr, 21.09. 12:40 48% -
Fr, 21.09. 12:30 54% 23 km
Fr, 21.09. 12:00 59% 26 km
Fr, 21.09. 11:30 61% 17 km
Fr, 21.09. 11:00 65% 20 km
Fr, 21.09. 10:30 71% 20 km
Ortszeit Niederschlagsmenge Niederschlagsart
Fr, 21.09. 8:00 0.0 l/m2 in 12 Std. -
Fr, 21.09. 2:00 0.0 l/m2 in 6 Std. -
Do, 20.09. 20:00 0.0 l/m2 in 12 Std. -
Do, 20.09. 14:00 0.0 l/m2 in 6 Std. -
Do, 20.09. 8:00 0.0 l/m2 in 12 Std. -
Do, 20.09. 2:00 0.0 l/m2 in 6 Std. -
Mi, 19.09. 20:00 21 l/m2 in 12 Std. -
Mi, 19.09. 14:00 21 l/m2 in 6 Std. Regenschauer
Ortszeit Niederschlagsmenge Niederschlagsart
Fr, 21.09. 13:30 0.0 l/m2 in 1 Std. -
Fr, 21.09. 13:10 keine Meldung -
Fr, 21.09. 13:00 0.0 l/m2 in 1 Std. -
Fr, 21.09. 12:50 keine Meldung -
Fr, 21.09. 12:40 keine Meldung -
Fr, 21.09. 12:30 0.0 l/m2 in 1 Std. -
Fr, 21.09. 12:00 0.0 l/m2 in 1 Std. -
Fr, 21.09. 11:30 0.0 l/m2 in 1 Std. -
Fr, 21.09. 11:00 0.0 l/m2 in 1 Std. -
Fr, 21.09. 10:30 0.0 l/m2 in 1 Std. -
Ortszeit Stärke Spitze Richtung
km/h Bft. km/h Grad Sektor
Fr, 21.09. 8:00 11 2 18 150° SO
Fr, 21.09. 2:00 7 2 14 150° SO
Do, 20.09. 20:00 13 3 24 110° O
Do, 20.09. 14:00 13 3 22 150° SO
Do, 20.09. 8:00 9 2 13 140° SO
Do, 20.09. 2:00 7 2 11 120° SO
Mi, 19.09. 20:00 9 2 15 130° SO
Mi, 19.09. 14:00 4 1 22 120° SO
Ortszeit Stärke Spitze Richtung
km/h Bft. km/h Grad Sektor
Fr, 21.09. 13:30 26 4 44 210° SW
Fr, 21.09. 13:10 26 4 - 210° SW
Fr, 21.09. 13:00 30 5 46 220° SW
Fr, 21.09. 12:50 30 5 - 220° SW
Fr, 21.09. 12:40 25 4 - 220° SW
Fr, 21.09. 12:30 14 3 32 200° S
Fr, 21.09. 12:00 22 4 40 200° S
Fr, 21.09. 11:30 26 4 39 210° SW
Fr, 21.09. 11:00 24 4 39 200° S
Fr, 21.09. 10:30 18 3 29 180° S
Ortszeit Untergrenze Bedeckung Gattung
total tief tief mittel hoch
Fr, 21.09. 8:00 5700 m 4/8 4/8 - - -
Fr, 21.09. 2:00 5700 m 4/8 4/8 - - -
Do, 20.09. 20:00 6000 m 1/8 1/8 - - -
Do, 20.09. 14:00 5400 m 5/8 5/8 - - -
Do, 20.09. 8:00 5700 m 3/8 3/8 - - -
Do, 20.09. 2:00 6000 m 3/8 3/8 - - -
Mi, 19.09. 20:00 6000 m 1/8 1/8 - - -
Mi, 19.09. 14:00 6000 m 1/8 1/8 - - -
Ortszeit Bedeckungsgrad in Achtel und Wolkenuntergrenze
Fr, 21.09. 13:30 5(6900m) 6(8400m)
Fr, 21.09. 13:10 6(6600m) 7(8400m)
Fr, 21.09. 13:00 2(7200m)
Fr, 21.09. 12:50 2(7200m)
Fr, 21.09. 12:40 2(6900m)
Fr, 21.09. 12:30 7(6900m)
Fr, 21.09. 12:00 3(6900m)
Fr, 21.09. 11:30 1(6000m)
Fr, 21.09. 11:00 3(6000m)
Fr, 21.09. 10:30 4(5700m)
Ortszeit Luftdruck NN (hPa) Tendenz (hPa in 3 Std.)
Fr, 21.09. 8:00 1015 - 0,7
Fr, 21.09. 2:00 1015 - 1,5
Do, 20.09. 20:00 1016 - 0,8
Do, 20.09. 14:00 1018 - 1,3
Do, 20.09. 8:00 1022 + 0,4
Do, 20.09. 2:00 1021 - 0,2
Mi, 19.09. 20:00 1020 + 0,2
Mi, 19.09. 14:00 1021 - 0,7
Ortszeit Luftdruck NN (hPa) Tendenz (hPa in 3 Std.)
Fr, 21.09. 13:30 1010 - 1,6
Fr, 21.09. 13:10 1010 keine Meldung
Fr, 21.09. 13:00 1010 - 1,1
Fr, 21.09. 12:50 1010 keine Meldung
Fr, 21.09. 12:40 1011 keine Meldung
Fr, 21.09. 12:30 1011 - 1,0
Fr, 21.09. 12:00 1012 - 0,7
Fr, 21.09. 11:30 1012 - 0,6
Fr, 21.09. 11:00 1012 - 0,6
Fr, 21.09. 10:30 1013 - 0,2
Ortszeit Schneehöhe (cm)
Fr, 21.09. 8:00 -
Fr, 21.09. 2:00 -
Do, 20.09. 20:00 -
Do, 20.09. 14:00 -
Do, 20.09. 8:00 -
Do, 20.09. 2:00 -
Mi, 19.09. 20:00 -
Mi, 19.09. 14:00 -
Ortszeit Schneehöhe (cm)
Fr, 21.09. 13:30 -
Fr, 21.09. 13:10 -
Fr, 21.09. 13:00 -
Fr, 21.09. 12:50 -
Fr, 21.09. 12:40 -
Fr, 21.09. 12:30 -
Fr, 21.09. 12:00 -
Fr, 21.09. 11:30 -
Fr, 21.09. 11:00 -
Fr, 21.09. 10:30 -
Link zu dieser Seite / Seite empfehlen

Das Wetter in ...